Time;durP1;ratioP1;P1;durP2;ratioP2;P2;SDS_P1;SDS_P2;PMS_P1;PMS_P2;Temp;Humidity;BMP_temperature;BMP_pressure;BME280_temperature;BME280_humidity;BME280_pressure;Samples;Min_cycle;Max_cycle;Signal;HPM_P1;HPM_P2
2022/01/28 00:01:14;;;;;;;;;;;2.30;1.40;;;2.94;100.00;96219.16;648807;215;24818;-73
2022/01/28 00:04:00;;;;;;;;;;;2.40;1.40;;;2.96;100.00;96230.35;653289;212;25248;-76
2022/01/28 00:06:39;;;;;;;;;;;2.40;1.40;;;2.97;100.00;96226.25;615830;229;24818;-78
2022/01/28 00:09:20;;;;;;;;;;;2.40;1.40;;;2.99;100.00;96230.33;650300;216;24800;-78
2022/01/28 00:12:02;;;;;;;;;;;2.40;1.40;;;2.94;100.00;96244.48;622480;227;24879;-78
2022/01/28 00:14:55;;;;;;;;;;;2.50;1.40;;;2.94;100.00;96241.02;652756;216;25049;-73
2022/01/28 00:18:05;;;;;;;;;;;2.40;1.40;;;2.89;100.00;96256.88;653861;212;24820;-74
2022/01/28 00:38:44;;;;;;;;;;;1.90;1.40;;;2.58;100.00;96255.20;652438;216;24822;-72
2022/01/28 00:41:18;;;;;;;;;;;1.90;1.40;;;2.55;100.00;96273.69;653580;216;24898;-73
2022/01/28 00:44:06;;;;;;;;;;;1.80;1.40;;;2.42;100.00;96262.92;655518;212;24818;-79
2022/01/28 00:46:49;;;;;;;;;;;1.80;1.40;;;2.48;100.00;96269.53;653205;216;24747;-74
2022/01/28 00:49:30;;;;;;;;;;;1.80;1.40;;;2.56;100.00;96267.45;621717;223;24886;-72
2022/01/28 00:52:12;;;;;;;;;;;1.90;1.40;;;2.55;100.00;96268.02;652897;216;24802;-72
2022/01/28 00:54:53;;;;;;;;;;;1.90;1.40;;;2.56;100.00;96267.56;649384;217;25311;-71
2022/01/28 00:57:37;;;;;;;;;;;1.90;1.40;;;2.57;100.00;96271.23;652819;212;24823;-74
2022/01/28 01:00:19;;;;;;;;;;;1.90;1.40;;;2.63;100.00;96280.17;652174;216;24758;-71
2022/01/28 01:03:00;;;;;;;;;;;1.90;1.40;;;2.64;100.00;96290.79;653217;212;24822;-71
2022/01/28 01:05:41;;;;;;;;;;;1.90;1.40;;;2.60;100.00;96298.59;651901;212;24814;-72
2022/01/28 01:08:23;;;;;;;;;;;1.80;1.40;;;2.53;100.00;96292.92;653787;216;25150;-72
2022/01/28 01:11:04;;;;;;;;;;;1.80;1.40;;;2.55;100.00;96282.95;653428;216;24826;-72
2022/01/28 01:13:51;;;;;;;;;;;1.80;1.40;;;2.54;100.00;96286.26;607173;233;24967;-72
2022/01/28 01:16:41;;;;;;;;;;;1.80;1.40;;;2.55;100.00;96296.44;653183;216;24716;-73
2022/01/28 01:19:21;;;;;;;;;;;1.80;1.40;;;2.56;100.00;96305.84;652965;216;24723;-71
2022/01/28 01:22:00;;;;;;;;;;;1.80;1.40;;;2.56;100.00;96315.84;653476;216;24806;-71
2022/01/28 01:24:49;;;;;;;;;;;1.80;1.40;;;2.50;100.00;96319.98;653624;216;25001;-72
2022/01/28 01:27:22;;;;;;;;;;;1.80;1.40;;;2.46;100.00;96308.81;650089;216;24903;-74
2022/01/28 01:30:03;;;;;;;;;;;1.80;1.40;;;2.47;100.00;96331.75;653685;216;24862;-71
2022/01/28 01:32:45;;;;;;;;;;;1.70;1.40;;;2.48;100.00;96335.35;652438;213;24780;-73
2022/01/28 01:35:50;;;;;;;;;;;1.70;1.40;;;2.42;100.00;96325.84;652264;212;25001;-72
2022/01/28 01:38:36;;;;;;;;;;;1.70;1.40;;;2.39;100.00;96326.40;653475;216;24892;-72
2022/01/28 01:41:18;;;;;;;;;;;1.70;1.40;;;2.34;100.00;96330.48;649297;216;24866;-72
2022/01/28 01:44:03;;;;;;;;;;;1.60;1.40;;;2.34;100.00;96323.22;653630;216;27849;-71
2022/01/28 01:52:25;;;;;;;;;;;1.70;1.40;;;2.29;100.00;96335.25;653809;212;24887;-73
2022/01/28 01:55:07;;;;;;;;;;;1.70;1.40;;;2.21;100.00;96328.81;653110;216;25124;-71
2022/01/28 01:57:54;;;;;;;;;;;1.60;1.40;;;2.16;100.00;96338.80;654405;216;24884;-77
2022/01/28 02:00:41;;;;;;;;;;;1.60;1.40;;;2.11;100.00;96337.23;652411;216;25202;-72
2022/01/28 02:03:23;;;;;;;;;;;1.50;1.40;;;2.03;100.00;96349.61;649435;215;24962;-73
2022/01/28 02:06:04;;;;;;;;;;;1.50;1.40;;;1.94;100.00;96353.34;651123;216;25219;-73
2022/01/28 02:08:45;;;;;;;;;;;1.40;1.40;;;1.93;100.00;96351.46;652848;212;24963;-73
2022/01/28 02:11:29;;;;;;;;;;;1.40;1.40;;;1.96;100.00;96356.67;653043;213;24989;-75
2022/01/28 02:14:13;;;;;;;;;;;1.50;1.40;;;1.95;100.00;96349.38;654739;216;25463;-77
2022/01/28 02:17:01;;;;;;;;;;;1.50;1.40;;;1.87;100.00;96348.94;652571;216;25001;-72
2022/01/28 02:19:41;;;;;;;;;;;1.40;1.40;;;1.78;100.00;96354.78;654156;216;24993;-74
2022/01/28 02:22:29;;;;;;;;;;;1.40;1.40;;;1.81;100.00;96361.92;652450;212;25480;-77
2022/01/28 02:25:21;;;;;;;;;;;1.50;1.40;;;1.92;100.00;96364.73;655039;216;24952;-77
2022/01/28 02:28:11;;;;;;;;;;;1.50;1.40;;;1.91;100.00;96360.24;647952;217;24887;-72
2022/01/28 02:30:50;;;;;;;;;;;1.50;1.40;;;1.92;100.00;96369.50;652967;212;25451;-74
2022/01/28 02:36:03;;;;;;;2.00;1.80;;;1.60;1.40;;;2.00;100.00;96373.59;645653;212;31798;-75
2022/01/28 02:38:40;;;;;;;1.37;1.20;;;1.70;1.40;;;2.04;100.00;96373.77;647804;212;31655;-77
2022/01/28 02:41:33;;;;;;;;;;;1.70;1.40;;;2.05;100.00;96377.20;653491;216;24846;-75
2022/01/28 02:44:19;;;;;;;;;;;1.70;1.40;;;2.06;100.00;96375.98;648531;217;24830;-72
2022/01/28 02:46:59;;;;;;;;;;;1.70;1.40;;;2.08;100.00;96370.91;648929;215;24849;-74
2022/01/28 02:49:37;;;;;;;;;;;1.70;1.40;;;2.13;100.00;96375.47;649499;214;25485;-73
2022/01/28 02:52:22;;;;;;;;;;;1.80;1.40;;;2.10;100.00;96375.41;653676;212;25144;-73
2022/01/28 02:55:00;;;;;;;;;;;1.70;1.40;;;2.14;100.00;96373.41;648384;216;25077;-73
2022/01/28 02:57:51;;;;;;;;;;;1.80;1.40;;;2.12;100.00;96368.83;654541;216;24819;-74
2022/01/28 03:00:25;;;;;;;;;;;1.80;1.40;;;2.15;100.00;96373.34;654505;216;25275;-74
2022/01/28 03:03:06;;;;;;;;;;;1.80;1.40;;;2.17;100.00;96373.31;652707;216;24844;-72
2022/01/28 03:05:47;;;;;;;;;;;1.80;1.40;;;2.22;100.00;96379.83;622463;226;24875;-73
2022/01/28 03:08:34;;;;;;;;;;;1.90;1.40;;;2.24;100.00;96388.83;654276;213;25301;-77
2022/01/28 03:14:35;;;;;;;;;;;1.80;1.40;;;2.24;100.00;96388.66;653414;216;24792;-77
2022/01/28 03:17:13;;;;;;;;;;;1.90;1.40;;;2.25;100.00;96393.68;653375;213;24932;-73
2022/01/28 03:19:53;;;;;;;;;;;1.90;1.40;;;2.26;100.00;96397.33;653680;216;24896;-77
2022/01/28 03:22:32;;;;;;;;;;;1.90;1.40;;;2.28;100.00;96398.25;653175;212;25007;-77
2022/01/28 03:25:18;;;;;;;;;;;1.90;1.40;;;2.30;100.00;96396.97;654466;212;24759;-74
2022/01/28 03:28:00;;;;;;;;;;;1.90;1.40;;;2.30;100.00;96393.09;653777;212;24964;-74
2022/01/28 03:30:40;;;;;;;;;;;1.90;1.40;;;2.33;100.00;96402.09;653366;212;24720;-74
2022/01/28 03:35:53;;;;;;;1.67;1.35;;;2.00;1.40;;;2.30;100.00;96407.88;645716;212;31563;-74
2022/01/28 03:38:35;;;;;;;0.55;0.55;;;2.00;1.40;;;2.35;100.00;96422.44;646903;212;31582;-76
2022/01/28 03:41:24;;;;;;;1.00;0.70;;;2.00;1.40;;;2.37;100.00;96421.92;647023;216;31530;-77
2022/01/28 03:44:05;;;;;;;1.10;1.00;;;2.00;1.40;;;2.32;100.00;96427.82;619060;226;42599;-77
2022/01/28 03:46:49;;;;;;;;;;;1.90;1.40;;;2.34;100.00;96439.92;653967;216;24811;-75
2022/01/28 03:49:32;;;;;;;;;;;1.90;1.40;;;2.32;100.00;96442.33;654108;216;24890;-76
2022/01/28 03:52:19;;;;;;;;;;;2.00;1.40;;;2.30;100.00;96439.77;652562;216;24826;-74
2022/01/28 03:55:01;;;;;;;;;;;2.00;1.40;;;2.31;100.00;96431.75;652831;216;24863;-76
2022/01/28 03:57:53;;;;;;;;;;;1.90;1.40;;;2.25;100.00;96428.06;654093;216;24861;-77
2022/01/28 04:00:34;;;;;;;;;;;1.90;1.40;;;2.24;100.00;96434.47;654073;216;24815;-77
2022/01/28 04:12:00;;;;;;;;;;;2.00;1.40;;;2.30;100.00;96449.94;621765;224;24879;-77
2022/01/28 04:15:18;;;;;;;;;;;1.90;1.40;;;2.25;100.00;96449.09;650060;217;25281;-77
2022/01/28 04:17:46;;;;;;;;;;;1.80;1.40;;;2.19;100.00;96447.73;654465;212;25442;-77
2022/01/28 04:20:33;;;;;;;;;;;1.80;1.40;;;2.19;100.00;96457.20;653746;216;24898;-74
2022/01/28 04:23:20;;;;;;;;;;;1.80;1.40;;;2.24;100.00;96454.59;625555;225;24877;-77
2022/01/28 04:26:04;;;;;;;;;;;1.80;1.40;;;2.08;100.00;96459.78;652702;212;24804;-74
2022/01/28 04:28:47;;;;;;;;;;;1.70;1.40;;;2.04;100.00;96466.03;654042;216;24799;-76
2022/01/28 04:31:28;;;;;;;;;;;1.60;1.40;;;2.09;100.00;96467.53;654554;212;24898;-76
2022/01/28 04:35:54;;;;;;;1.35;0.80;;;1.70;1.40;;;2.08;100.00;96469.05;619031;222;31856;-75
2022/01/28 04:38:44;;;;;;;1.85;1.58;;;1.70;1.40;;;2.07;100.00;96458.77;647078;212;32178;-76
2022/01/28 04:41:43;;;;;;;0.60;0.60;;;1.70;1.40;;;2.08;100.00;96461.25;646200;216;32313;-76
2022/01/28 04:44:21;;;;;;;1.02;0.85;;;1.70;1.40;;;2.06;100.00;96468.73;646400;216;31555;-76
2022/01/28 04:47:10;;;;;;;;;;;1.70;1.40;;;2.12;100.00;96483.88;654249;216;24816;-75
2022/01/28 04:49:57;;;;;;;;;;;1.80;1.40;;;2.05;100.00;96477.31;655184;216;24828;-76
2022/01/28 05:01:19;;;;;;;;;;;1.40;1.40;;;1.86;100.00;96483.55;652120;212;25163;-76
2022/01/28 05:03:58;;;;;;;;;;;1.50;1.40;;;1.87;100.00;96485.27;656918;216;24817;-75
2022/01/28 05:07:07;;;;;;;;;;;1.50;1.40;;;1.94;100.00;96483.92;652529;216;24835;-73
2022/01/28 05:26:41;;;;;;;;;;;1.60;1.40;;;1.96;100.00;96480.30;653744;212;24916;-76
2022/01/28 05:29:19;;;;;;;;;;;1.60;1.40;;;1.99;100.00;96488.09;654568;212;25449;-77
2022/01/28 05:32:00;;;;;;;;;;;1.60;1.40;;;2.01;100.00;96504.77;657382;212;24892;-76
2022/01/28 05:35:57;;;;;;;0.50;0.50;;;1.70;1.40;;;2.05;100.00;96491.47;649273;216;31470;-76
2022/01/28 05:38:44;;;;;;;1.50;0.80;;;1.80;1.40;;;2.04;100.00;96493.73;648438;216;31607;-74
2022/01/28 05:41:32;;;;;;;;;;;1.70;1.40;;;2.08;100.00;96502.81;655155;216;24813;-76
2022/01/28 05:44:12;;;;;;;;;;;1.80;1.40;;;2.05;100.00;96510.42;654034;216;24758;-76
2022/01/28 05:47:03;;;;;;;;;;;1.70;1.40;;;2.06;100.00;96510.77;654811;212;24826;-76
2022/01/28 05:49:45;;;;;;;;;;;1.70;1.40;;;2.03;100.00;96528.69;660888;212;24804;-73
2022/01/28 05:52:26;;;;;;;;;;;1.70;1.40;;;2.07;100.00;96541.37;620419;224;24869;-76
2022/01/28 05:55:10;;;;;;;;;;;1.70;1.40;;;2.08;100.00;96539.86;657259;216;24733;-76
2022/01/28 05:57:55;;;;;;;;;;;1.70;1.40;;;2.04;100.00;96545.33;655231;216;25177;-76
2022/01/28 06:00:38;;;;;;;;;;;1.80;1.40;;;2.06;100.00;96547.55;657575;216;25158;-76
2022/01/28 06:03:28;;;;;;;;;;;1.80;1.40;;;1.92;100.00;96552.80;652499;216;24814;-76
2022/01/28 06:06:18;;;;;;;;;;;1.60;1.40;;;1.90;100.00;96558.57;653090;216;24906;-75
2022/01/28 06:08:58;;;;;;;;;;;1.60;1.40;;;1.94;100.00;96556.40;655475;212;24856;-75
2022/01/28 06:11:40;;;;;;;;;;;1.60;1.40;;;1.97;100.00;96569.42;661299;212;24797;-76
2022/01/28 06:14:21;;;;;;;;;;;1.70;1.40;;;1.93;100.00;96568.16;657918;216;24742;-76
2022/01/28 06:17:03;;;;;;;;;;;1.60;1.40;;;1.82;100.00;96575.19;651037;215;24928;-76
2022/01/28 06:19:51;;;;;;;;;;;1.50;1.40;;;1.90;100.00;96582.31;649212;215;24839;-74
2022/01/28 06:22:42;;;;;;;;;;;1.60;1.40;;;1.80;100.00;96570.70;648492;215;24801;-76
2022/01/28 06:25:23;;;;;;;;;;;1.50;1.40;;;1.81;100.00;96573.09;657097;216;25368;-76
2022/01/28 06:28:04;;;;;;;;;;;1.50;1.40;;;1.82;100.00;96575.61;654045;212;24811;-75
2022/01/28 06:30:46;;;;;;;;;;;1.50;1.40;;;1.88;100.00;96575.41;658468;216;24912;-76
2022/01/28 06:35:53;;;;;;;;;;;1.70;1.40;;;1.98;100.00;96589.92;655737;216;25236;-76
2022/01/28 06:38:35;;;;;;;;;;;1.70;1.40;;;1.97;100.00;96589.41;652792;212;24799;-76
2022/01/28 06:41:16;;;;;;;;;;;1.70;1.40;;;1.98;100.00;96604.26;655180;216;24901;-76
2022/01/28 06:43:58;;;;;;;;;;;1.70;1.40;;;1.97;100.00;96603.91;658714;212;25353;-76
2022/01/28 06:46:45;;;;;;;;;;;1.70;1.40;;;1.94;100.00;96611.46;656909;216;24827;-75
2022/01/28 06:49:33;;;;;;;;;;;1.60;1.40;;;1.87;100.00;96603.33;654516;216;24843;-77
2022/01/28 06:52:16;;;;;;;;;;;1.50;1.40;;;1.81;100.00;96612.09;654110;216;25026;-76
2022/01/28 06:55:01;;;;;;;;;;;1.50;1.40;;;1.74;100.00;96621.34;657527;212;24807;-76
2022/01/28 06:57:42;;;;;;;;;;;1.40;1.40;;;1.64;100.00;96617.86;653591;212;24819;-74
2022/01/28 07:00:24;;;;;;;;;;;1.20;1.40;;;1.34;100.00;96622.63;653204;216;24913;-76
2022/01/28 07:03:05;;;;;;;;;;;0.90;1.40;;;1.17;100.00;96614.64;656582;212;24846;-75
2022/01/28 07:05:49;;;;;;;;;;;0.70;1.40;;;1.11;100.00;96607.39;649644;216;24875;-76
2022/01/28 07:08:30;;;;;;;;;;;0.70;1.40;;;1.08;100.00;96609.98;653982;212;24895;-74
2022/01/28 07:11:12;;;;;;;;;;;0.60;1.40;;;1.09;100.00;96615.77;647945;220;24852;-76
2022/01/28 07:13:56;;;;;;;;;;;0.60;1.40;;;1.13;100.00;96610.32;653428;216;24802;-75
2022/01/28 07:16:38;;;;;;;;;;;0.60;1.40;;;1.19;100.00;96623.25;649824;214;24813;-75
2022/01/28 07:19:19;;;;;;;;;;;0.70;1.40;;;1.20;100.00;96619.81;655895;212;24753;-74
2022/01/28 07:22:04;;;;;;;;;;;0.70;1.40;;;1.32;100.00;96622.58;652957;216;26142;-75
2022/01/28 07:24:45;;;;;;;;;;;0.90;1.40;;;1.34;100.00;96628.72;653408;212;24810;-74
2022/01/28 07:27:27;;;;;;;;;;;0.90;1.40;;;1.38;100.00;96631.38;652803;212;24902;-76
2022/01/28 07:30:08;;;;;;;;;;;1.00;1.40;;;1.42;100.00;96628.83;650237;215;25695;-77
2022/01/28 07:32:51;;;;;;;;;;;1.00;1.40;;;1.49;100.00;96621.87;647214;216;24878;-76
2022/01/28 07:35:55;;;;;;;1.70;1.60;;;1.10;1.40;;;1.47;100.00;96629.33;645886;216;31602;-76
2022/01/28 07:38:36;;;;;;;;;;;1.10;1.40;;;1.53;100.00;96634.11;622405;226;24865;-75
2022/01/28 07:41:18;;;;;;;;;;;1.20;1.40;;;1.58;100.00;96639.99;651793;216;24803;-76
2022/01/28 07:43:59;;;;;;;;;;;1.20;1.40;;;1.67;100.00;96639.33;655724;212;24957;-74
2022/01/28 07:46:47;;;;;;;;;;;1.30;1.40;;;1.73;100.00;96641.16;651445;216;26025;-74
2022/01/28 07:49:34;;;;;;;;;;;1.40;1.40;;;1.82;100.00;96639.45;652830;216;24840;-76
2022/01/28 07:52:21;;;;;;;;;;;1.50;1.40;;;1.83;100.00;96648.00;651180;212;24857;-75
2022/01/28 07:55:03;;;;;;;;;;;1.40;1.40;;;1.82;100.00;96650.09;632513;220;24897;-73
2022/01/28 07:57:50;;;;;;;;;;;1.40;1.40;;;1.85;100.00;96654.52;653957;216;24845;-75
2022/01/28 08:00:31;;;;;;;;;;;1.50;1.40;;;1.82;100.00;96658.98;654147;216;25111;-77
2022/01/28 08:03:18;;;;;;;;;;;1.50;1.40;;;1.76;100.00;96658.20;652683;216;24861;-72
2022/01/28 08:06:06;;;;;;;;;;;1.40;1.40;;;1.77;100.00;96669.56;644442;219;24884;-77
2022/01/28 08:08:54;;;;;;;;;;;1.40;1.40;;;1.78;100.00;96664.29;651149;212;24838;-73
2022/01/28 08:11:34;;;;;;;;;;;1.40;1.40;;;1.72;100.00;96678.91;656516;212;24809;-72
2022/01/28 08:14:18;;;;;;;;;;;1.40;1.40;;;1.85;100.00;96685.80;650074;215;24807;-75
2022/01/28 08:17:02;;;;;;;;;;;1.40;1.40;;;1.84;100.00;96678.08;656704;216;25330;-76
2022/01/28 08:19:50;;;;;;;;;;;1.50;1.40;;;1.86;100.00;96691.38;655377;216;24828;-73
2022/01/28 08:22:44;;;;;;;;;;;1.50;1.40;;;1.85;100.00;96698.99;654915;216;25493;-76
2022/01/28 08:25:26;;;;;;;;;;;1.40;1.40;;;1.96;100.00;96702.17;653187;212;24814;-75
2022/01/28 08:28:13;;;;;;;;;;;1.60;1.40;;;2.00;100.00;96705.38;657652;216;24839;-74
2022/01/28 08:30:55;;;;;;;;;;;1.50;1.40;;;1.96;100.00;96699.51;654548;216;24900;-75
2022/01/28 08:35:55;;;;;;;;;;;1.40;1.40;;;1.84;100.00;96695.08;650255;212;24954;-74
2022/01/28 08:38:40;;;;;;;;;;;1.40;1.40;;;1.92;100.00;96701.77;652930;212;24837;-74
2022/01/28 08:41:17;;;;;;;;;;;1.50;1.40;;;1.97;100.00;96711.28;652859;212;25374;-76
2022/01/28 08:44:00;;;;;;;;;;;1.50;1.40;;;1.95;100.00;96715.66;653398;216;24850;-77
2022/01/28 08:46:42;;;;;;;;;;;1.60;1.40;;;2.02;100.00;96708.13;653342;216;24822;-78
2022/01/28 08:49:29;;;;;;;;;;;1.60;1.40;;;2.05;100.00;96716.75;653279;216;24822;-75
2022/01/28 08:52:10;;;;;;;;;;;1.50;1.40;;;2.00;100.00;96718.23;653464;216;24815;-74
2022/01/28 08:55:00;;;;;;;;;;;1.60;1.40;;;1.99;100.00;96712.42;649214;214;24831;-77
2022/01/28 08:57:43;;;;;;;;;;;1.60;1.40;;;1.98;100.00;96706.52;653857;216;24811;-77
2022/01/28 09:00:25;;;;;;;;;;;1.60;1.40;;;1.95;100.00;96712.42;653598;216;25311;-74
2022/01/28 09:03:06;;;;;;;;;;;1.60;1.40;;;1.96;100.00;96722.55;654115;212;24780;-74
2022/01/28 09:05:57;;;;;;;;;;;1.60;1.40;;;2.07;100.00;96726.57;649289;212;25028;-78
2022/01/28 09:08:40;;;;;;;;;;;1.70;1.40;;;2.13;100.00;96733.98;654556;216;25045;-78
2022/01/28 09:14:19;;;;;;;;;;;1.80;1.40;;;2.27;100.00;96733.90;652200;212;24815;-75
2022/01/28 09:16:59;;;;;;;;;;;1.80;1.40;;;2.33;100.00;96735.72;652931;212;24837;-74
2022/01/28 09:19:44;;;;;;;;;;;1.90;1.40;;;2.35;100.00;96737.41;622336;226;25885;-73
2022/01/28 09:22:25;;;;;;;;;;;2.10;1.40;;;2.49;100.00;96728.50;649034;216;25444;-74
2022/01/28 09:25:07;;;;;;;;;;;2.10;1.40;;;2.40;100.00;96729.64;652690;216;24814;-74
2022/01/28 09:27:48;;;;;;;;;;;2.10;1.40;;;2.41;100.00;96739.42;638628;221;24937;-74
2022/01/28 09:30:32;;;;;;;;;;;2.10;1.40;;;2.61;100.00;96731.88;651913;216;24813;-74
2022/01/28 09:35:51;;;;;;;0.70;0.70;;;2.40;1.40;;;2.68;100.00;96735.52;645061;216;31604;-77
2022/01/28 09:38:32;;;;;;;1.40;1.08;;;2.60;1.40;;;2.88;100.00;96731.78;619737;226;31903;-74
2022/01/28 09:41:17;;;;;;;;;;;2.60;1.40;;;2.70;100.00;96747.09;653505;212;24908;-76
2022/01/28 09:44:00;;;;;;;;;;;2.60;1.40;;;3.04;100.00;96750.69;652716;216;25412;-76
2022/01/28 09:46:42;;;;;;;;;;;3.20;1.40;;;4.07;100.00;96743.11;652901;212;24846;-74
2022/01/28 09:49:30;;;;;;;;;;;4.70;1.40;;;3.71;100.00;96735.31;650201;216;25403;-78
2022/01/28 09:52:13;;;;;;;;;;;3.90;1.40;;;4.56;100.00;96745.62;652741;212;24820;-74
2022/01/28 09:54:57;;;;;;;;;;;4.80;1.40;;;4.66;100.00;96747.32;647292;217;24813;-75
2022/01/28 09:57:38;;;;;;;;;;;4.00;1.40;;;4.42;100.00;96751.38;648619;217;25315;-77
2022/01/28 10:00:22;;;;;;;;;;;4.10;1.40;;;3.87;100.00;96750.41;653524;216;24821;-77
2022/01/28 10:03:08;;;;;;;;;;;3.00;1.40;;;3.43;100.00;96749.57;653402;216;24829;-78
2022/01/28 10:05:55;;;;;;;;;;;2.80;1.40;;;3.40;100.00;96744.19;652421;216;24813;-74
2022/01/28 10:08:41;;;;;;;;;;;2.80;1.40;;;3.28;100.00;96749.05;654321;213;24822;-75
2022/01/28 10:11:28;;;;;;;;;;;2.70;1.40;;;3.14;100.00;96759.49;655868;216;24841;-79
2022/01/28 10:14:18;;;;;;;;;;;2.70;1.40;;;3.16;100.00;96762.54;652757;216;24821;-74
2022/01/28 10:16:59;;;;;;;;;;;2.70;1.40;;;3.16;100.00;96757.95;652577;216;24849;-76
2022/01/28 10:19:42;;;;;;;;;;;2.60;1.40;;;3.19;100.00;96754.84;653848;212;24832;-74
2022/01/28 10:22:24;;;;;;;;;;;2.60;1.40;;;3.13;100.00;96752.50;653339;216;24832;-77
2022/01/28 10:25:05;;;;;;;;;;;2.70;1.40;;;3.15;100.00;96743.30;653104;216;24830;-77
2022/01/28 10:28:07;;;;;;;;;;;2.90;1.40;;;3.94;100.00;96739.55;652819;212;24825;-76
2022/01/28 10:30:49;;;;;;;;;;;4.40;1.40;;;4.92;100.00;96752.47;653887;212;24831;-74
2022/01/28 10:35:53;;;;;;;0.60;0.50;;;3.60;1.40;;;3.96;100.00;96745.98;647424;216;31512;-76
2022/01/28 10:38:36;;;;;;;6.15;1.90;;;3.30;1.40;;;3.72;100.00;96755.98;618972;226;32021;-74
2022/01/28 10:41:20;;;;;;;1.30;1.30;;;3.20;1.40;;;3.64;100.00;96760.23;646057;213;31607;-76
2022/01/28 10:44:00;;;;;;;1.08;0.98;;;3.10;1.40;;;3.88;100.00;96756.28;646924;212;31543;-74
2022/01/28 10:46:41;;;;;;;1.70;1.10;;;4.00;1.40;;;4.54;100.00;96738.42;619417;226;31928;-76
2022/01/28 10:49:29;;;;;;;1.95;1.12;;;5.00;1.40;;;4.86;100.00;96742.03;647143;216;31530;-76
2022/01/28 10:52:12;;;;;;;3.15;1.12;;;4.10;1.40;;;4.49;100.00;96740.61;646925;212;31563;-80
2022/01/28 10:54:56;;;;;;;1.40;1.00;;;4.40;1.40;;;5.20;100.00;96739.48;619011;225;32108;-74
2022/01/28 10:57:37;;;;;;;1.80;1.10;;;4.40;1.40;;;4.52;100.00;96736.19;646622;212;31559;-75
2022/01/28 11:00:19;;;;;;;0.62;0.57;;;3.70;1.40;;;4.28;100.00;96745.92;646408;216;31510;-77
2022/01/28 11:03:01;;;;;;;1.00;0.88;;;3.70;1.40;;;4.44;100.00;96746.83;645980;212;31493;-75
2022/01/28 11:05:43;;;;;;;2.20;1.40;;;3.70;1.40;;;4.25;100.00;96741.20;645950;212;31509;-77
2022/01/28 11:08:24;;;;;;;0.62;0.55;;;3.60;1.40;;;4.07;100.00;96738.86;646679;212;31522;-77
2022/01/28 11:11:09;;;;;;;1.60;1.35;;;3.70;1.40;;;4.44;100.00;96758.69;647331;216;42674;-75
2022/01/28 11:13:51;;;;;;;1.60;1.00;;;3.70;1.40;;;4.13;100.00;96752.02;619864;222;31901;-77
2022/01/28 11:16:32;;;;;;;0.80;0.70;;;3.60;1.40;;;3.93;100.00;96770.55;646534;216;31509;-74
2022/01/28 11:19:18;;;;;;;1.20;1.00;;;3.40;1.40;;;4.09;100.00;96762.95;619785;226;41142;-80
2022/01/28 11:22:11;;;;;;;1.10;0.60;;;3.60;1.40;;;4.18;100.00;96769.70;647312;216;31521;-77
2022/01/28 11:25:09;;;;;;;1.00;0.70;;;3.70;1.40;;;4.42;100.00;96765.62;645719;212;31664;-75
2022/01/28 11:27:50;;;;;;;3.25;0.80;;;3.90;1.40;;;4.38;100.00;96758.97;646978;216;31677;-75
2022/01/28 11:30:32;;;;;;;0.90;0.80;;;3.70;1.40;;;4.15;100.00;96755.98;646240;212;31518;-74
2022/01/28 11:36:03;;;;;;;0.80;0.80;;;3.80;1.40;;;4.33;100.00;96758.05;646335;216;31586;-74
2022/01/28 11:38:46;;;;;;;0.60;0.60;;;3.80;1.40;;;4.31;100.00;96742.92;647395;212;31478;-75
2022/01/28 11:41:28;;;;;;;2.60;0.60;;;3.90;1.40;;;4.39;100.00;96747.34;619569;226;31818;-76
2022/01/28 11:44:10;;;;;;;3.60;0.80;;;3.80;1.40;;;4.20;100.00;96741.62;647032;216;31484;-76
2022/01/28 11:46:52;;;;;;;0.98;0.70;;;3.80;1.40;;;4.15;100.00;96751.43;646797;212;31539;-78
2022/01/28 11:49:33;;;;;;;1.50;0.65;;;3.70;1.40;;;4.16;100.00;96747.14;631702;221;31846;-75
2022/01/28 11:52:22;;;;;;;0.90;0.70;;;3.70;1.40;;;4.15;100.00;96745.15;645492;216;31521;-74
2022/01/28 11:55:31;;;;;;;1.10;1.00;;;3.70;1.40;;;4.28;100.00;96754.45;621083;222;31923;-77
2022/01/28 11:58:12;;;;;;;0.70;0.70;;;3.80;1.40;;;4.33;100.00;96757.47;646728;216;31504;-75
2022/01/28 12:00:55;;;;;;;2.30;0.95;;;3.70;1.40;;;4.23;100.00;96753.16;646086;212;31538;-74
2022/01/28 12:03:39;;;;;;;1.77;1.67;;;3.70;1.40;;;4.08;100.00;96755.03;647101;216;31563;-74
2022/01/28 12:06:21;;;;;;;1.45;0.80;;;3.50;1.40;;;3.95;100.00;96755.47;617273;226;32204;-77
2022/01/28 12:09:09;;;;;;;0.80;0.75;;;3.30;1.40;;;3.63;100.00;96758.55;647446;216;31885;-79
2022/01/28 12:11:51;;;;;;;1.05;0.98;;;3.10;1.40;;;3.65;100.00;96750.69;647579;216;31757;-80
2022/01/28 12:14:59;;;;;;;1.45;1.35;;;3.20;1.40;;;3.91;100.00;96754.02;648841;212;31680;-77
2022/01/28 12:17:39;;;;;;;0.82;0.82;;;3.30;1.40;;;3.97;100.00;96753.47;646084;216;31577;-74
2022/01/28 12:20:40;;;;;;;1.65;1.10;;;3.40;1.40;;;3.86;100.00;96755.97;646085;216;31561;-77
2022/01/28 12:23:25;;;;;;;1.08;0.98;;;3.30;1.40;;;3.59;100.00;96751.70;646996;212;31534;-76
2022/01/28 12:26:07;;;;;;;0.95;0.75;;;3.20;1.40;;;3.68;100.00;96754.19;647536;212;42216;-77
2022/01/28 12:28:49;;;;;;;0.80;0.70;;;3.10;1.40;;;3.65;100.00;96743.61;646449;216;31526;-75
2022/01/28 12:31:34;;;;;;;3.30;0.90;;;3.10;1.40;;;3.64;100.00;96754.57;647165;216;32220;-75
2022/01/28 12:35:56;;;;;;;1.17;1.08;;;3.10;1.40;;;3.55;100.00;96755.19;618572;226;31951;-76
2022/01/28 12:38:35;;;;;;;0.80;0.70;;;3.00;1.40;;;3.56;100.00;96766.53;646361;216;31485;-77
2022/01/28 12:41:17;;;;;;;1.20;1.10;;;3.10;1.40;;;3.52;100.00;96760.85;646702;216;31564;-77
2022/01/28 12:43:58;;;;;;;0.85;0.77;;;3.10;1.40;;;3.59;100.00;96747.47;645424;216;31512;-77
2022/01/28 12:46:40;;;;;;;1.35;0.90;;;3.10;1.40;;;3.72;100.00;96752.28;646205;212;32684;-75
2022/01/28 12:49:26;;;;;;;1.00;1.00;;;3.20;1.40;;;3.80;100.00;96756.02;646645;212;31729;-77
2022/01/28 12:52:08;;;;;;;1.75;0.98;;;3.30;1.40;;;3.81;100.00;96753.64;618726;226;31985;-77
2022/01/28 12:54:49;;;;;;;1.10;1.00;;;3.40;1.40;;;4.04;100.00;96750.58;619994;222;32253;-77
2022/01/28 12:57:31;;;;;;;0.80;0.80;;;3.40;1.40;;;3.99;100.00;96749.60;645324;216;31496;-74
2022/01/28 13:01:08;;;;;;;0.70;0.70;;;3.30;1.40;;;3.83;100.00;96759.05;646777;216;31554;-74
2022/01/28 13:03:53;;;;;;;1.30;0.80;;;3.30;1.40;;;4.01;100.00;96754.85;645873;212;31777;-77
2022/01/28 13:09:21;;;;;;;0.70;0.70;;;3.30;1.40;;;3.90;100.00;96759.97;647603;216;31475;-75
2022/01/28 13:12:03;;;;;;;1.90;0.90;;;3.20;1.40;;;3.83;100.00;96765.88;646694;216;31538;-76
2022/01/28 13:14:49;;;;;;;1.40;0.95;;;3.10;1.40;;;3.67;100.00;96760.44;646552;212;32374;-79
2022/01/28 13:17:37;;;;;;;0.95;0.85;;;2.90;1.40;;;3.56;100.00;96755.27;646998;216;31691;-74
2022/01/28 13:20:19;;;;;;;3.50;0.95;;;2.90;1.40;;;3.61;100.00;96747.45;618391;222;31951;-74
2022/01/28 13:23:07;;;;;;;0.80;0.80;;;3.00;1.40;;;3.72;100.00;96748.27;646230;212;31495;-79
2022/01/28 13:26:03;;;;;;;1.62;1.02;;;3.00;1.40;;;3.77;100.00;96740.19;618938;226;31895;-77
2022/01/28 13:28:45;;;;;;;0.60;0.60;;;3.10;1.40;;;3.89;100.00;96737.22;647537;212;31548;-78
2022/01/28 13:31:28;;;;;;;1.10;0.80;;;3.30;1.40;;;4.03;100.00;96744.92;646255;216;31562;-78
2022/01/28 13:35:51;;;;;;;4.40;0.90;;;3.60;1.40;;;4.33;100.00;96739.86;646440;216;31547;-76
2022/01/28 13:38:34;;;;;;;0.93;0.90;;;3.70;1.40;;;4.16;100.00;96743.40;646421;216;31695;-74
2022/01/28 13:41:19;;;;;;;1.20;0.90;;;3.60;1.40;;;4.35;100.00;96743.44;646798;212;31568;-75
2022/01/28 13:44:01;;;;;;;1.70;1.10;;;3.70;1.40;;;4.41;100.00;96748.41;646014;216;31530;-77
2022/01/28 13:46:47;;;;;;;0.80;0.70;;;3.60;1.40;;;4.30;100.00;96745.63;615155;225;42529;-77
2022/01/28 13:49:31;;;;;;;2.00;0.60;;;3.50;1.40;;;4.24;100.00;96752.72;647809;212;34433;-79
2022/01/28 13:52:20;;;;;;;1.42;0.88;;;3.60;1.40;;;4.41;100.00;96758.89;646592;216;31588;-77
2022/01/28 13:54:57;;;;;;;0.70;0.70;;;3.60;1.40;;;4.43;100.00;96757.48;618166;226;31963;-74
2022/01/28 13:57:42;;;;;;;0.70;0.50;;;3.50;1.40;;;4.29;100.00;96757.91;646895;212;33990;-77
2022/01/28 14:00:35;;;;;;;1.80;0.80;;;3.50;1.40;;;4.61;100.00;96757.38;646808;216;42906;-79